Terminal Aerodrome Forecast
Issued by NWS Houston/Galveston TX

Current Version | Previous Version | Text Only | Print | Product List | Glossary Off
Versions: 1 2 3 4 5 6 7 8 9 10 11 12 13 14 15 16 17 18 19 20 21 22 23 24 25 26

000
FTUS44 KHGX 201134
TAFHOU
TAF
KHOU 201134Z 2012/2112 00000KT P6SM FEW020
     FM201800 14007KT P6SM VCTS BKN040CB
      TEMPO 2021/2023 TSRA
     FM210000 12005KT P6SM SCT040
     FM211000 VRB02KT P6SM SCT020=

USA.gov is the U.S. government's official web portal to all federal, state and local government web resources and services.